Antlers, Colorado
Current Conditions -  °F | °C
As of 6:53 PM on Saturday 25 Oct 2014 (Local Time) from KEEO Reporting Station
Clear Clear  
Wind Chill: 12°   Ceiling: Unl
Heat Index: 12°   Visibility: 10mi
Dew Point:   Wind: 6mph
Humidity: 47%   Direction: 60°ENE
Pressure: 30.13"   Gusts: NA
Location:  39.7934°N, 108.135°W
Report Text: KEEO 260053Z AUTO 06005KT 10SM CLR 12/01 A3013 RMK AO2 SLP172 T01220011
Loading
Personal Weather Stations






























Interactive Weather Map
Tropical Storm Tracking
New forecast layout! Learn more

10-Day Weather Forecast

Advertisements
Track Severe Weather on mobile